Time;durP1;ratioP1;P1;durP2;ratioP2;P2;SDS_P1;SDS_P2;PMS_P1;PMS_P2;Temp;Humidity;BMP_temperature;BMP_pressure;BME280_temperature;BME280_humidity;BME280_pressure;Samples;Min_cycle;Max_cycle;Signal;HPM_P1;HPM_P2
2022/11/10 00:00:40;;;;;;;11.23;3.20;;;10.60;99.90;;;;;;5017184;28;20261;-70
2022/11/10 00:03:07;;;;;;;14.07;3.50;;;10.70;99.90;;;;;;5016892;28;20233;-70
2022/11/10 00:05:37;;;;;;;10.13;3.33;;;10.60;99.90;;;;;;5016797;28;20217;-70
2022/11/10 00:08:04;;;;;;;10.60;3.60;;;10.60;99.90;;;;;;5016693;28;20221;-70
2022/11/10 00:10:31;;;;;;;8.63;3.20;;;10.70;99.90;;;;;;5016514;28;20179;-69
2022/11/10 00:13:01;;;;;;;10.57;3.13;;;10.70;99.90;;;;;;5016296;28;20171;-69
2022/11/10 00:18:14;;;;;;;10.20;3.03;;;10.70;99.90;;;;;;5016801;28;20197;-69
2022/11/10 00:20:40;;;;;;;10.07;3.03;;;10.80;99.90;;;;;;5016673;28;20178;-70
2022/11/10 00:23:05;;;;;;;16.57;3.77;;;10.80;99.90;;;;;;5016399;28;20595;-69
2022/11/10 00:25:31;;;;;;;7.40;2.93;;;10.90;99.90;;;;;;5016209;28;20214;-70
2022/11/10 00:28:01;;;;;;;12.47;3.57;;;11.00;99.90;;;;;;5015945;28;20175;-69
2022/11/10 00:30:26;;;;;;;13.70;3.60;;;11.00;99.90;;;;;;5015140;28;20235;-71
2022/11/10 00:32:52;;;;;;;11.83;3.03;;;11.00;99.90;;;;;;5015834;28;20182;-70
2022/11/10 00:35:18;;;;;;;7.97;2.93;;;10.90;99.90;;;;;;5016187;28;20179;-70
2022/11/10 00:37:43;;;;;;;10.67;2.80;;;11.00;99.90;;;;;;5016337;28;20680;-71
2022/11/10 00:40:09;;;;;;;14.60;2.80;;;11.00;99.90;;;;;;5016267;28;20630;-69
2022/11/10 00:42:35;;;;;;;11.03;3.20;;;10.90;99.90;;;;;;5014592;28;20166;-69
2022/11/10 00:45:01;;;;;;;15.37;3.33;;;11.00;99.90;;;;;;5016230;28;20210;-69
2022/11/10 00:47:26;;;;;;;6.73;3.20;;;10.90;99.90;;;;;;5015962;28;20170;-69
2022/11/10 00:49:52;;;;;;;8.93;3.07;;;10.80;99.90;;;;;;5016005;28;20179;-70
2022/11/10 00:52:17;;;;;;;12.13;3.57;;;10.80;99.90;;;;;;5016208;28;20171;-70
2022/11/10 00:54:43;;;;;;;11.53;3.40;;;10.70;99.90;;;;;;5014719;28;20261;-69
2022/11/10 00:57:08;;;;;;;11.40;3.23;;;10.70;99.90;;;;;;5015513;28;20201;-70
2022/11/10 00:59:34;;;;;;;12.00;3.73;;;10.80;99.90;;;;;;5015445;28;20182;-70
2022/11/10 01:02:02;;;;;;;8.20;2.87;;;10.80;99.90;;;;;;5014470;28;20175;-70
2022/11/10 01:04:28;;;;;;;14.10;3.40;;;11.00;99.90;;;;;;5015676;28;20210;-69
2022/11/10 01:06:53;;;;;;;13.30;3.20;;;11.00;99.90;;;;;;5015717;28;20531;-69
2022/11/10 01:09:19;;;;;;;8.47;3.27;;;11.00;99.90;;;;;;5015711;28;20178;-70
2022/11/10 01:11:45;;;;;;;12.13;3.60;;;11.00;99.90;;;;;;5015069;28;20650;-70
2022/11/10 01:14:10;;;;;;;10.60;3.43;;;11.00;99.90;;;;;;5015508;28;20174;-70
2022/11/10 01:16:36;;;;;;;7.53;3.17;;;11.10;99.90;;;;;;5015601;28;20252;-70
2022/11/10 01:19:02;;;;;;;14.43;3.30;;;11.10;99.90;;;;;;5014197;28;20182;-70
2022/11/10 01:21:28;;;;;;;10.60;3.00;;;11.00;99.90;;;;;;5015435;28;20175;-69
2022/11/10 01:23:55;;;;;;;14.43;3.37;;;10.90;99.90;;;;;;5015086;28;20178;-69
2022/11/10 01:26:21;;;;;;;6.70;2.63;;;10.80;99.90;;;;;;5015027;28;20253;-69
2022/11/10 01:28:47;;;;;;;14.63;3.47;;;10.80;99.90;;;;;;5015201;28;20305;-69
2022/11/10 01:31:15;;;;;;;10.07;3.67;;;10.80;99.90;;;;;;5015050;28;20175;-69
2022/11/10 01:33:41;;;;;;;15.27;3.50;;;10.90;99.90;;;;;;5014784;28;20333;-70
2022/11/10 01:36:11;;;;;;;15.93;4.13;;;10.80;99.90;;;;;;5015147;28;20257;-69
2022/11/10 01:38:39;;;;;;;10.57;3.27;;;10.70;99.90;;;;;;5015238;28;20174;-69
2022/11/10 01:41:10;;;;;;;9.40;3.53;;;10.70;99.90;;;;;;5013502;28;20198;-70
2022/11/10 01:43:39;;;;;;;14.20;3.50;;;10.70;99.90;;;;;;5014699;28;20182;-69
2022/11/10 01:46:07;;;;;;;9.73;3.03;;;10.70;99.90;;;;;;5013595;28;20214;-70
2022/11/10 01:48:45;;;;;;;12.90;3.57;;;10.70;99.90;;;;;;5014781;28;20187;-69
2022/11/10 01:51:36;;;;;;;13.20;3.47;;;10.80;99.90;;;;;;5014928;28;20209;-69
2022/11/10 01:54:09;;;;;;;10.80;3.30;;;10.80;99.90;;;;;;5014587;28;20233;-69
2022/11/10 01:56:40;;;;;;;10.93;3.47;;;10.90;99.90;;;;;;5014450;28;20187;-70
2022/11/10 01:59:11;;;;;;;13.10;3.30;;;11.00;99.90;;;;;;5014988;28;20175;-70
2022/11/10 02:01:37;;;;;;;14.80;3.33;;;11.00;99.90;;;;;;5014915;28;20250;-70
2022/11/10 02:04:12;;;;;;;11.27;3.43;;;11.00;99.90;;;;;;5014645;28;20199;-69
2022/11/10 02:06:40;;;;;;;15.53;3.43;;;11.00;99.90;;;;;;5014526;28;20545;-70
2022/11/10 02:09:06;;;;;;;12.27;3.50;;;10.90;99.90;;;;;;5014127;28;20174;-69
2022/11/10 02:11:33;;;;;;;14.73;3.77;;;11.00;99.90;;;;;;5013628;28;20201;-69
2022/11/10 02:13:59;;;;;;;12.07;2.73;;;11.00;99.90;;;;;;5014518;28;20626;-69
2022/11/10 02:16:25;;;;;;;12.33;3.03;;;11.10;99.90;;;;;;5014572;28;20228;-69
2022/11/10 02:18:51;;;;;;;10.07;3.50;;;11.00;99.90;;;;;;5014602;28;20173;-69
2022/11/10 02:21:19;;;;;;;15.27;3.17;;;11.00;99.90;;;;;;5012934;28;20194;-70
2022/11/10 02:23:49;;;;;;;19.07;3.90;;;10.80;99.90;;;;;;5013939;28;20170;-70
2022/11/10 02:26:26;;;;;;;11.30;3.30;;;10.70;99.90;;;;;;5014505;28;20169;-69
2022/11/10 02:28:52;;;;;;;16.10;3.13;;;10.70;99.90;;;;;;5014506;28;20202;-69
2022/11/10 02:31:17;;;;;;;8.70;2.90;;;10.70;99.90;;;;;;5014314;28;20642;-69
2022/11/10 02:33:43;;;;;;;10.50;3.30;;;10.70;99.90;;;;;;5013889;28;20272;-69
2022/11/10 02:36:12;;;;;;;14.43;3.27;;;10.60;99.90;;;;;;5014127;28;20171;-69
2022/11/10 02:38:38;;;;;;;15.57;3.53;;;10.50;99.90;;;;;;5013895;28;20171;-69
2022/11/10 02:41:04;;;;;;;15.73;3.77;;;10.50;99.90;;;;;;5014130;28;20181;-69
2022/11/10 02:43:30;;;;;;;11.53;3.33;;;10.40;99.90;;;;;;5014008;28;20167;-69
2022/11/10 02:45:58;;;;;;;13.03;3.50;;;10.40;99.90;;;;;;5013875;28;20279;-69
2022/11/10 02:48:24;;;;;;;14.70;3.37;;;10.40;99.90;;;;;;5013920;28;20177;-69
2022/11/10 02:50:50;;;;;;;12.10;3.43;;;10.40;99.90;;;;;;5013708;28;20253;-70
2022/11/10 02:53:15;;;;;;;10.90;3.10;;;10.40;99.90;;;;;;5013708;28;20256;-69
2022/11/10 02:55:41;;;;;;;14.03;3.77;;;10.50;99.90;;;;;;5013791;28;20646;-69
2022/11/10 02:58:06;;;;;;;16.47;3.40;;;10.40;99.90;;;;;;5013826;28;20171;-69
2022/11/10 03:00:32;;;;;;;11.77;3.57;;;10.40;99.90;;;;;;5013899;28;20171;-69
2022/11/10 03:03:00;;;;;;;15.77;3.83;;;10.40;99.90;;;;;;5013573;28;20257;-70
2022/11/10 03:05:27;;;;;;;13.43;3.87;;;10.30;99.90;;;;;;4996440;28;20611;-69
2022/11/10 03:08:00;;;;;;;11.67;3.27;;;10.40;99.90;;;;;;5013247;28;20166;-69
2022/11/10 03:10:27;;;;;;;15.10;3.93;;;10.30;99.90;;;;;;5013551;28;20178;-70
2022/11/10 03:12:58;;;;;;;14.10;3.27;;;10.30;99.90;;;;;;5013580;28;20254;-69
2022/11/10 03:15:23;;;;;;;12.33;3.70;;;10.30;99.90;;;;;;5012101;28;20179;-69
2022/11/10 03:17:49;;;;;;;11.03;3.23;;;10.30;99.90;;;;;;5013578;28;20178;-70
2022/11/10 03:20:16;;;;;;;17.33;3.77;;;10.20;99.90;;;;;;5013701;28;20253;-70
2022/11/10 03:22:41;;;;;;;18.53;3.40;;;10.20;99.90;;;;;;5012973;28;20175;-69
2022/11/10 03:25:08;;;;;;;10.03;3.40;;;10.20;99.90;;;;;;5013490;28;20210;-69
2022/11/10 03:27:34;;;;;;;14.03;3.27;;;10.20;99.90;;;;;;5013155;28;20179;-69
2022/11/10 03:29:59;;;;;;;18.80;3.37;;;10.20;99.90;;;;;;5013402;28;20181;-68
2022/11/10 03:32:25;;;;;;;15.43;3.10;;;10.20;99.90;;;;;;5013350;28;20169;-69
2022/11/10 03:34:53;;;;;;;14.00;3.87;;;10.20;99.90;;;;;;5012839;28;20592;-69
2022/11/10 03:37:19;;;;;;;14.27;3.20;;;10.20;99.90;;;;;;5012841;28;20254;-70
2022/11/10 03:39:44;;;;;;;15.53;3.37;;;10.10;99.90;;;;;;5013316;28;20682;-68
2022/11/10 03:42:13;;;;;;;15.47;3.30;;;10.10;99.90;;;;;;5012848;28;20252;-69
2022/11/10 03:44:38;;;;;;;12.93;3.30;;;10.10;99.90;;;;;;5013125;28;20199;-70
2022/11/10 03:47:04;;;;;;;12.27;3.10;;;10.10;99.90;;;;;;5013228;28;20181;-69
2022/11/10 03:49:30;;;;;;;10.40;3.13;;;10.10;99.90;;;;;;5013292;28;20190;-69
2022/11/10 03:51:56;;;;;;;13.40;3.33;;;10.10;99.90;;;;;;5012640;28;20225;-69
2022/11/10 03:54:22;;;;;;;13.57;3.73;;;10.10;99.90;;;;;;5013077;28;20193;-70
2022/11/10 03:56:47;;;;;;;15.30;3.77;;;10.00;99.90;;;;;;5013101;28;20167;-70
2022/11/10 03:59:13;;;;;;;21.47;3.60;;;10.00;99.90;;;;;;5013048;28;20175;-69
2022/11/10 04:01:39;;;;;;;13.90;3.10;;;10.10;99.90;;;;;;5013060;28;20342;-69
2022/11/10 04:08:57;;;;;;;14.20;3.53;;;10.10;99.90;;;;;;5013059;28;20627;-69
2022/11/10 04:09:34;;;;;;;16.60;3.57;;;10.00;99.90;;;;;;5012936;28;20239;-69
2022/11/10 04:17:27;;;;;;;9.87;3.20;;;10.00;99.90;;;;;;5012747;28;20249;-70
2022/11/10 04:19:53;;;;;;;8.83;3.00;;;10.00;99.90;;;;;;5012138;28;20206;-69
2022/11/10 04:23:25;;;;;;;19.80;3.47;;;10.00;99.90;;;;;;5011283;28;20182;-69
2022/11/10 04:25:10;;;;;;;13.50;3.60;;;10.00;99.90;;;;;;5012569;28;20238;-69
2022/11/10 04:27:37;;;;;;;15.77;3.23;;;10.00;99.90;;;;;;5012998;28;20202;-69
2022/11/10 04:30:04;;;;;;;16.60;3.47;;;10.00;99.90;;;;;;5011323;28;20187;-70
2022/11/10 04:32:30;;;;;;;11.70;3.13;;;10.00;99.90;;;;;;5012562;28;20174;-69
2022/11/10 04:34:56;;;;;;;9.33;3.30;;;10.10;99.90;;;;;;5013026;28;20388;-70
2022/11/10 04:37:23;;;;;;;9.87;3.13;;;10.10;99.90;;;;;;5014713;28;20529;-69
2022/11/10 04:39:49;;;;;;;15.30;3.67;;;10.00;99.90;;;;;;5016247;28;20177;-70
2022/11/10 04:42:14;;;;;;;12.67;3.60;;;10.00;99.90;;;;;;5015927;28;20179;-69
2022/11/10 04:44:40;;;;;;;13.80;3.50;;;10.00;99.90;;;;;;5014689;28;20213;-68
2022/11/10 04:47:05;;;;;;;13.23;3.57;;;10.00;99.90;;;;;;5015615;28;20175;-68
2022/11/10 04:49:31;;;;;;;11.80;3.30;;;10.10;99.90;;;;;;5015836;28;20218;-70
2022/11/10 04:51:57;;;;;;;9.67;3.50;;;10.10;99.90;;;;;;5015034;28;20225;-69
2022/11/10 04:54:22;;;;;;;15.23;3.83;;;10.00;99.90;;;;;;5015174;28;20213;-69
2022/11/10 04:56:48;;;;;;;9.93;3.27;;;10.00;99.90;;;;;;5015231;28;20309;-70
2022/11/10 04:59:13;;;;;;;13.10;3.67;;;10.10;99.90;;;;;;5014146;28;20525;-69
2022/11/10 05:01:39;;;;;;;15.20;3.87;;;10.10;99.90;;;;;;5015228;28;20178;-69
2022/11/10 05:04:05;;;;;;;17.83;4.20;;;10.10;99.90;;;;;;5013791;28;20197;-69
2022/11/10 05:06:30;;;;;;;17.23;3.77;;;10.00;99.90;;;;;;5013565;28;20181;-69
2022/11/10 05:08:56;;;;;;;21.03;4.10;;;10.00;99.90;;;;;;5015018;28;20634;-69
2022/11/10 05:11:21;;;;;;;14.97;4.03;;;10.00;99.90;;;;;;5015132;28;20205;-69
2022/11/10 05:13:47;;;;;;;12.93;3.60;;;9.90;99.90;;;;;;5015236;28;20175;-69
2022/11/10 05:16:13;;;;;;;13.87;4.07;;;9.90;99.90;;;;;;5014409;28;20615;-69
2022/11/10 05:18:40;;;;;;;17.87;3.50;;;10.00;99.90;;;;;;5014929;28;20177;-69
2022/11/10 05:21:05;;;;;;;14.20;3.63;;;10.00;99.90;;;;;;5014979;28;20205;-69
2022/11/10 05:23:37;;;;;;;16.67;3.33;;;9.90;99.90;;;;;;5013456;28;20206;-68
2022/11/10 05:26:14;;;;;;;16.20;3.93;;;9.90;99.90;;;;;;5013798;28;20309;-69
2022/11/10 05:28:41;;;;;;;12.07;3.37;;;9.90;99.90;;;;;;5014890;28;20199;-69
2022/11/10 05:31:07;;;;;;;20.90;4.27;;;9.80;99.90;;;;;;5015138;28;20179;-70
2022/11/10 05:33:39;;;;;;;17.40;4.40;;;9.90;99.90;;;;;;5013882;28;20211;-70
2022/11/10 05:36:05;;;;;;;17.50;3.57;;;9.80;99.90;;;;;;5015198;28;20170;-69
2022/11/10 05:38:31;;;;;;;16.60;4.17;;;9.90;99.90;;;;;;5014635;28;20221;-69
2022/11/10 05:41:00;;;;;;;19.03;3.57;;;9.80;99.90;;;;;;5014205;28;20200;-69
2022/11/10 05:43:25;;;;;;;21.23;4.03;;;9.80;99.90;;;;;;5014324;28;20183;-70
2022/11/10 05:45:51;;;;;;;18.27;4.20;;;9.80;99.90;;;;;;5013098;28;20203;-69
2022/11/10 05:48:17;;;;;;;18.03;3.63;;;9.80;99.90;;;;;;5014242;28;20245;-69
2022/11/10 05:50:43;;;;;;;16.77;3.80;;;9.90;99.90;;;;;;5013358;28;20503;-69
2022/11/10 05:53:09;;;;;;;15.07;3.57;;;9.90;99.90;;;;;;5012585;28;20171;-69
2022/11/10 05:55:35;;;;;;;23.87;4.37;;;9.80;99.90;;;;;;5014047;28;20194;-69
2022/11/10 05:58:01;;;;;;;15.70;3.83;;;9.80;99.90;;;;;;5012649;28;20626;-71
2022/11/10 06:00:34;;;;;;;15.97;3.50;;;9.80;99.90;;;;;;5013977;28;20175;-69
2022/11/10 06:03:06;;;;;;;13.33;3.30;;;9.80;99.90;;;;;;5012820;28;20183;-70
2022/11/10 06:05:35;;;;;;;17.43;3.83;;;9.90;99.90;;;;;;5013551;28;20206;-69
2022/11/10 06:08:02;;;;;;;13.37;3.70;;;9.90;99.90;;;;;;5014215;28;20170;-69
2022/11/10 06:10:28;;;;;;;18.97;4.27;;;9.90;99.90;;;;;;5013917;28;20174;-70
2022/11/10 06:12:54;;;;;;;15.53;3.77;;;9.90;99.90;;;;;;5013092;28;20692;-69
2022/11/10 06:15:20;;;;;;;11.27;3.80;;;9.90;99.90;;;;;;5012152;28;20174;-69
2022/11/10 06:17:46;;;;;;;14.57;3.70;;;9.90;99.90;;;;;;5013655;28;20198;-70
2022/11/10 06:20:13;;;;;;;14.07;3.93;;;9.90;99.90;;;;;;5012907;28;20198;-69
2022/11/10 06:22:39;;;;;;;14.03;3.90;;;9.90;99.90;;;;;;5013512;28;20670;-70
2022/11/10 06:25:06;;;;;;;15.90;3.80;;;10.00;99.90;;;;;;5012393;28;20217;-69
2022/11/10 06:27:34;;;;;;;20.27;4.50;;;9.90;99.90;;;;;;5013724;28;20610;-70
2022/11/10 06:30:00;;;;;;;18.77;3.63;;;9.80;99.90;;;;;;5012971;28;20539;-70
2022/11/10 06:32:28;;;;;;;9.80;3.60;;;9.90;99.90;;;;;;5011717;28;20183;-70
2022/11/10 06:34:54;;;;;;;18.37;4.00;;;9.90;99.90;;;;;;5013202;28;20301;-69
2022/11/10 06:37:20;;;;;;;14.10;4.07;;;9.90;99.90;;;;;;5011598;28;20712;-70
2022/11/10 06:39:46;;;;;;;21.57;3.90;;;9.80;99.90;;;;;;5013254;28;20193;-70
2022/11/10 06:42:11;;;;;;;13.40;3.80;;;9.80;99.90;;;;;;5012888;28;20183;-71
2022/11/10 06:44:37;;;;;;;15.70;3.53;;;9.80;99.90;;;;;;5012772;28;20221;-69
2022/11/10 06:47:05;;;;;;;14.67;4.20;;;9.80;99.90;;;;;;5011585;28;20562;-70
2022/11/10 06:49:34;;;;;;;16.10;4.40;;;9.90;99.90;;;;;;5012822;28;20191;-71
2022/11/10 06:51:59;;;;;;;16.33;4.20;;;9.80;99.90;;;;;;5011949;28;20254;-69
2022/11/10 06:54:25;;;;;;;22.77;4.47;;;9.80;99.90;;;;;;5012114;28;20266;-70
2022/11/10 06:56:53;;;;;;;23.23;4.67;;;9.90;99.90;;;;;;5012444;28;20179;-70
2022/11/10 06:59:19;;;;;;;23.80;4.90;;;9.90;99.90;;;;;;5011415;28;20170;-69
2022/11/10 07:01:44;;;;;;;13.77;4.20;;;9.90;99.90;;;;;;5012199;28;20365;-71
2022/11/10 07:04:10;;;;;;;15.33;3.90;;;9.90;99.90;;;;;;5011828;28;20564;-69
2022/11/10 07:06:36;;;;;;;14.50;3.83;;;10.00;99.90;;;;;;5011903;28;20193;-69
2022/11/10 07:09:01;;;;;;;16.80;4.13;;;10.00;99.90;;;;;;5011893;28;20170;-70
2022/11/10 07:11:27;;;;;;;12.07;4.20;;;10.00;99.90;;;;;;5012497;28;20245;-70
2022/11/10 07:13:52;;;;;;;16.50;4.23;;;10.10;99.90;;;;;;5012168;28;20178;-70
2022/11/10 07:16:18;;;;;;;11.47;4.10;;;10.20;99.90;;;;;;5011912;28;20305;-70
2022/11/10 07:18:46;;;;;;;12.43;3.70;;;10.30;99.90;;;;;;5011859;28;20174;-72
2022/11/10 07:21:12;;;;;;;15.77;4.00;;;10.40;99.90;;;;;;5011504;28;20197;-71
2022/11/10 07:23:37;;;;;;;11.87;4.03;;;10.70;99.90;;;;;;5012047;28;20215;-71
2022/11/10 07:26:03;;;;;;;15.43;3.83;;;11.00;99.90;;;;;;5011764;28;20202;-71
2022/11/10 07:28:29;;;;;;;13.27;4.33;;;11.30;99.90;;;;;;5011873;28;20677;-73
2022/11/10 07:30:54;;;;;;;19.13;3.83;;;11.70;99.90;;;;;;5011491;28;20536;-72
2022/11/10 07:33:20;;;;;;;10.17;3.97;;;12.10;99.90;;;;;;5011449;28;20561;-72
2022/11/10 07:35:55;;;;;;;17.13;3.80;;;12.70;99.90;;;;;;5011870;28;20654;-72
2022/11/10 07:38:21;;;;;;;12.13;3.83;;;13.20;99.90;;;;;;5011350;28;20178;-72
2022/11/10 07:40:51;;;;;;;18.10;3.90;;;13.80;99.90;;;;;;5012052;28;20575;-72
2022/11/10 07:43:16;;;;;;;12.40;3.67;;;14.20;99.90;;;;;;5011745;28;20227;-73
2022/11/10 07:45:42;;;;;;;14.33;4.00;;;14.60;99.90;;;;;;5011931;28;20321;-73
2022/11/10 07:48:09;;;;;;;13.53;4.10;;;14.70;99.90;;;;;;5012176;28;20582;-74
2022/11/10 07:50:34;;;;;;;12.83;4.13;;;14.80;99.90;;;;;;5010212;28;20179;-73
2022/11/10 07:53:09;;;;;;;11.23;3.70;;;15.30;99.90;;;;;;5011965;28;20503;-73
2022/11/10 07:55:37;;;;;;;12.83;4.13;;;15.70;99.90;;;;;;5011708;28;20257;-73
2022/11/10 07:58:02;;;;;;;12.87;4.10;;;16.70;99.90;;;;;;5011661;28;20198;-75
2022/11/10 08:00:28;;;;;;;14.13;3.93;;;17.30;99.90;;;;;;5011868;28;20179;-74
2022/11/10 08:02:59;;;;;;;11.63;3.97;;;17.30;99.90;;;;;;5011672;28;20225;-73
2022/11/10 08:05:24;;;;;;;8.73;3.78;;;17.30;99.90;;;;;;4997519;28;20207;-75
2022/11/10 08:07:51;;;;;;;13.07;3.97;;;17.50;99.90;;;;;;4992175;28;20180;-74
2022/11/10 08:10:17;;;;;;;13.45;4.20;;;17.60;99.90;;;;;;4992271;28;20180;-73
2022/11/10 08:12:43;;;;;;;9.77;3.90;;;17.60;99.90;;;;;;4995554;28;20186;-72
2022/11/10 08:15:09;;;;;;;10.10;3.90;;;17.50;99.90;;;;;;4995754;28;20502;-73
2022/11/10 08:17:34;;;;;;;11.57;4.20;;;17.80;99.90;;;;;;4991319;28;20187;-72
2022/11/10 08:20:00;;;;;;;9.93;3.75;;;18.30;99.90;;;;;;4994639;28;20314;-73
2022/11/10 08:22:25;;;;;;;11.35;3.42;;;18.70;99.90;;;;;;4992461;28;20175;-73
2022/11/10 08:24:51;;;;;;;14.77;4.07;;;18.50;99.90;;;;;;4991497;28;20202;-72
2022/11/10 08:27:17;;;;;;;10.50;3.55;;;18.60;99.90;;;;;;4994249;28;20612;-71
2022/11/10 08:29:42;;;;;;;20.23;5.40;;;18.90;99.90;;;;;;4970274;28;20945;-71
2022/11/10 08:32:08;;;;;;;15.10;4.25;;;19.40;99.90;;;;;;4984207;28;20178;-70
2022/11/10 08:34:33;;;;;;;14.07;4.05;;;19.40;99.50;;;;;;4983448;28;20421;-70
2022/11/10 08:36:59;;;;;;;9.18;3.60;;;19.50;99.70;;;;;;4985458;28;20278;-68
2022/11/10 08:39:26;;;;;;;10.18;3.45;;;19.40;99.60;;;;;;4992351;28;20199;-72
2022/11/10 08:41:51;;;;;;;10.55;4.10;;;18.90;99.90;;;;;;4986525;28;21004;-72
2022/11/10 08:44:17;;;;;;;10.82;3.63;;;18.90;99.90;;;;;;4986563;28;20190;-73
2022/11/10 08:46:43;;;;;;;10.10;3.63;;;18.70;99.90;;;;;;4998677;28;20654;-71
2022/11/10 08:49:08;;;;;;;11.40;3.55;;;18.40;99.90;;;;;;4984386;28;20190;-71
2022/11/10 08:51:34;;;;;;;12.93;3.63;;;18.40;99.90;;;;;;4980409;28;20192;-71
2022/11/10 08:54:03;;;;;;;12.63;4.35;;;18.70;99.90;;;;;;5007077;28;20196;-71
2022/11/10 08:56:29;;;;;;;11.02;4.00;;;19.10;99.90;;;;;;4989578;28;20211;-73
2022/11/10 08:58:54;;;;;;;13.80;4.18;;;19.60;99.50;;;;;;5003947;28;20228;-71
2022/11/10 09:01:20;;;;;;;9.05;3.60;;;19.20;99.50;;;;;;4985509;28;20265;-72
2022/11/10 09:03:45;;;;;;;9.52;3.60;;;19.50;99.20;;;;;;4989220;28;20710;-69
2022/11/10 09:06:11;;;;;;;13.05;4.35;;;19.10;99.90;;;;;;4989820;28;20572;-72
2022/11/10 09:08:37;;;;;;;9.65;4.32;;;19.50;99.70;;;;;;5002492;28;20266;-72
2022/11/10 09:11:03;;;;;;;12.13;4.63;;;20.10;99.10;;;;;;4985558;28;20195;-72
2022/11/10 09:13:29;;;;;;;9.23;4.10;;;20.30;97.50;;;;;;4983035;28;20187;-69
2022/11/10 09:15:55;;;;;;;10.70;4.35;;;20.50;97.30;;;;;;4978859;28;20283;-70
2022/11/10 09:18:21;;;;;;;14.23;5.18;;;20.90;97.40;;;;;;4979978;28;20286;-72
2022/11/10 09:20:46;;;;;;;11.65;4.97;;;20.60;97.00;;;;;;4990406;28;20261;-71
2022/11/10 09:23:15;;;;;;;12.25;5.35;;;20.90;96.60;;;;;;4982940;28;20246;-71
2022/11/10 09:25:44;;;;;;;11.02;4.22;;;20.70;96.60;;;;;;4993489;28;20218;-71
2022/11/10 09:28:13;;;;;;;11.50;4.80;;;20.50;97.00;;;;;;4993789;28;20180;-72
2022/11/10 09:30:39;;;;;;;17.20;5.10;;;21.10;96.70;;;;;;5001091;28;20211;-71
2022/11/10 09:33:07;;;;;;;10.73;4.53;;;21.70;95.40;;;;;;4992763;28;20186;-69
2022/11/10 09:35:36;;;;;;;9.18;4.55;;;21.60;95.20;;;;;;5003695;28;20297;-69
2022/11/10 09:38:02;;;;;;;10.88;4.72;;;22.00;94.00;;;;;;4987880;28;20191;-69
2022/11/10 09:41:07;;;;;;;10.95;4.68;;;21.80;94.00;;;;;;4989496;28;20293;-70
2022/11/10 09:43:41;;;;;;;14.07;4.68;;;21.10;95.10;;;;;;4979691;28;20266;-68
2022/11/10 09:46:31;;;;;;;10.13;4.25;;;20.00;96.70;;;;;;4989575;28;20284;-68
2022/11/10 09:49:25;;;;;;;7.18;4.25;;;20.70;97.40;;;;;;4979952;28;20172;-70
2022/11/10 09:51:55;;;;;;;10.45;4.55;;;21.00;95.60;;;;;;4973945;28;20263;-69
2022/11/10 09:54:42;;;;;;;11.35;4.40;;;20.90;96.00;;;;;;4981622;28;20179;-73
2022/11/10 09:57:14;;;;;;;11.63;4.65;;;21.00;95.40;;;;;;4993845;28;20222;-69
2022/11/10 09:59:41;;;;;;;11.80;4.60;;;20.90;95.90;;;;;;4996296;28;20270;-70
2022/11/10 10:02:38;;;;;;;13.10;5.00;;;20.70;96.50;;;;;;4994028;28;20186;-68
2022/11/10 10:05:22;;;;;;;12.40;4.57;;;20.80;96.20;;;;;;4997070;28;20214;-69
2022/11/10 10:07:55;;;;;;;8.65;4.40;;;20.90;96.30;;;;;;4989238;28;20181;-70
2022/11/10 10:10:36;;;;;;;11.80;5.20;;;21.10;96.00;;;;;;4987594;28;20537;-72
2022/11/10 10:13:42;;;;;;;17.10;6.22;;;21.80;94.80;;;;;;4986172;28;20185;-73
2022/11/10 10:16:10;;;;;;;13.18;5.38;;;21.90;94.00;;;;;;4992901;28;20183;-72
2022/11/10 10:18:53;;;;;;;11.80;4.90;;;22.10;94.30;;;;;;5000696;28;20550;-69
2022/11/10 10:21:33;;;;;;;12.95;6.28;;;21.70;93.90;;;;;;4998382;28;20194;-70
2022/11/10 10:24:01;;;;;;;10.15;4.47;;;20.90;95.60;;;;;;4983930;28;20185;-69
2022/11/10 10:26:29;;;;;;;10.88;4.18;;;20.90;95.50;;;;;;4993310;28;20229;-70
2022/11/10 10:28:58;;;;;;;11.85;4.47;;;21.10;95.50;;;;;;4982926;28;20852;-71
2022/11/10 10:31:29;;;;;;;12.15;4.25;;;21.20;94.70;;;;;;4981040;28;20180;-70
2022/11/10 10:33:55;;;;;;;13.13;4.20;;;20.80;95.40;;;;;;4981001;28;20241;-71
2022/11/10 10:36:24;;;;;;;11.27;4.25;;;20.90;95.40;;;;;;4994793;28;20167;-71
2022/11/10 10:38:55;;;;;;;9.57;4.20;;;21.20;94.40;;;;;;4987774;28;20634;-73
2022/11/10 10:41:30;;;;;;;9.57;3.97;;;21.20;94.80;;;;;;4983400;28;20175;-72
2022/11/10 10:43:59;;;;;;;8.63;3.92;;;21.30;94.60;;;;;;4990629;28;20285;-72
2022/11/10 10:46:25;;;;;;;8.85;4.10;;;20.40;95.10;;;;;;4994802;28;20839;-69
2022/11/10 10:49:21;;;;;;;15.60;4.32;;;20.30;96.60;;;;;;4990947;28;20254;-70
2022/11/10 10:51:49;;;;;;;11.00;4.32;;;20.40;96.80;;;;;;4981878;28;20646;-70
2022/11/10 10:54:35;;;;;;;10.90;3.90;;;20.60;95.60;;;;;;4982689;28;20237;-68
2022/11/10 10:57:03;;;;;;;7.68;3.63;;;20.10;96.80;;;;;;4987920;28;20171;-69
2022/11/10 10:59:30;;;;;;;8.90;3.30;;;20.30;95.70;;;;;;4982475;28;20666;-70
2022/11/10 11:01:56;;;;;;;7.72;3.38;;;19.70;96.70;;;;;;4982592;28;20206;-68
2022/11/10 11:04:34;;;;;;;10.80;3.92;;;20.00;97.00;;;;;;4992196;28;20209;-70
2022/11/10 11:07:03;;;;;;;8.32;3.70;;;19.80;96.80;;;;;;4976887;28;20671;-70
2022/11/10 11:09:46;;;;;;;6.90;3.55;;;19.70;97.30;;;;;;4998321;28;20638;-68
2022/11/10 11:12:19;;;;;;;10.82;3.95;;;19.90;97.50;;;;;;5001912;28;20206;-69
2022/11/10 11:14:45;;;;;;;9.90;3.80;;;19.70;97.40;;;;;;4986535;28;20244;-70
2022/11/10 11:17:16;;;;;;;8.02;3.80;;;19.60;98.10;;;;;;4984799;28;20183;-67
2022/11/10 11:19:42;;;;;;;9.38;3.78;;;19.20;99.10;;;;;;5001561;28;20668;-70
2022/11/10 11:22:29;;;;;;;10.68;4.10;;;19.30;99.40;;;;;;4993806;28;20183;-67
2022/11/10 11:25:10;;;;;;;8.13;3.80;;;20.00;98.00;;;;;;4975248;28;20209;-67
2022/11/10 11:27:45;;;;;;;8.15;3.70;;;19.90;97.60;;;;;;4984167;28;20628;-67
2022/11/10 11:30:22;;;;;;;9.82;4.15;;;19.40;98.30;;;;;;4989252;28;20175;-70
2022/11/10 11:33:15;;;;;;;7.93;3.83;;;19.20;98.70;;;;;;4991674;28;20222;-68
2022/11/10 11:36:02;;;;;;;10.57;4.10;;;19.10;99.70;;;;;;4992906;28;20194;-66
2022/11/10 11:38:43;;;;;;;9.85;4.18;;;19.00;99.40;;;;;;4991077;28;20682;-67
2022/11/10 11:41:20;;;;;;;8.68;3.88;;;18.70;99.90;;;;;;5004587;28;20210;-67
2022/11/10 11:44:11;;;;;;;10.05;3.10;;;19.10;99.30;;;;;;4992999;28;20262;-65
2022/11/10 11:46:40;;;;;;;7.95;3.20;;;18.40;99.90;;;;;;4994919;28;20651;-66
2022/11/10 11:49:14;;;;;;;10.70;3.47;;;18.30;99.90;;;;;;4999488;28;20174;-66
2022/11/10 11:51:43;;;;;;;8.43;3.63;;;17.80;99.90;;;;;;5014957;28;20201;-66
2022/11/10 11:54:20;;;;;;;6.85;3.60;;;18.00;99.90;;;;;;5015155;28;20177;-66
2022/11/10 11:56:49;;;;;;;13.63;3.67;;;18.40;99.90;;;;;;5000038;28;20727;-66
2022/11/10 11:59:42;;;;;;;8.73;4.70;;;18.30;99.90;;;;;;4987438;28;20221;-67
2022/11/10 12:02:19;;;;;;;15.00;10.23;;;18.10;99.90;;;;;;4984177;28;20287;-67
2022/11/10 12:05:07;;;;;;;5.30;2.85;;;18.00;99.90;;;;;;4993811;28;20202;-67
2022/11/10 12:07:53;;;;;;;14.85;3.53;;;17.90;99.90;;;;;;5007470;28;20172;-67
2022/11/10 12:10:26;;;;;;;6.00;3.10;;;17.70;99.90;;;;;;4995476;28;20229;-66
2022/11/10 12:13:23;;;;;;;7.97;3.20;;;17.80;99.90;;;;;;5009427;28;20271;-66
2022/11/10 12:16:09;;;;;;;5.93;3.05;;;17.90;99.90;;;;;;4996267;28;20631;-67
2022/11/10 12:19:22;;;;;;;6.95;3.03;;;17.60;99.90;;;;;;4994648;28;20179;-67
2022/11/10 12:22:07;;;;;;;10.70;2.75;;;17.70;99.90;;;;;;4972123;28;20290;-66
2022/11/10 12:25:17;;;;;;;7.28;2.88;;;17.60;99.90;;;;;;4993364;28;20290;-66
2022/11/10 12:27:50;;;;;;;10.52;3.60;;;17.50;99.90;;;;;;5003413;28;20171;-66
2022/11/10 12:30:17;;;;;;;11.82;3.20;;;17.40;99.90;;;;;;4987592;28;20281;-69
2022/11/10 12:32:54;;;;;;;8.68;3.10;;;17.10;99.90;;;;;;4990818;28;20257;-70
2022/11/10 12:35:27;;;;;;;7.00;2.67;;;17.10;99.90;;;;;;4992074;28;20210;-69
2022/11/10 12:38:06;;;;;;;6.70;1.92;;;17.00;99.90;;;;;;4985393;28;20222;-70
2022/11/10 12:40:42;;;;;;;5.78;1.85;;;17.00;99.90;;;;;;4984736;28;20206;-69
2022/11/10 12:43:32;;;;;;;6.63;2.30;;;16.70;99.90;;;;;;4986290;28;20193;-71
2022/11/10 12:46:03;;;;;;;5.50;1.83;;;16.70;99.90;;;;;;4999793;28;20889;-69
2022/11/10 12:48:39;;;;;;;6.07;1.90;;;16.70;99.90;;;;;;4987954;28;20202;-70
2022/11/10 12:51:26;;;;;;;3.03;1.70;;;16.70;99.90;;;;;;4993191;28;20181;-70
2022/11/10 12:53:52;;;;;;;4.00;1.80;;;16.80;99.90;;;;;;4990468;28;20279;-70
2022/11/10 12:56:26;;;;;;;4.70;1.63;;;16.70;99.90;;;;;;4994575;28;20195;-70
2022/11/10 12:59:20;;;;;;;9.80;2.20;;;16.70;99.90;;;;;;4996406;28;20163;-68
2022/11/10 13:01:50;;;;;;;10.00;2.10;;;16.70;99.90;;;;;;4987536;28;20255;-71
2022/11/10 13:04:18;;;;;;;4.30;1.50;;;16.80;99.90;;;;;;4997184;28;20172;-70